Time;durP1;ratioP1;P1;durP2;ratioP2;P2;SDS_P1;SDS_P2;PMS_P1;PMS_P2;Temp;Humidity;BMP_temperature;BMP_pressure;BME280_temperature;BME280_humidity;BME280_pressure;Samples;Min_cycle;Max_cycle;Signal;HPM_P1;HPM_P2
2022/01/27 00:01:21;;;;;;;9.05;6.25;;;20.50;49.00;;;;;;4995249;28;20137;-61
2022/01/27 00:04:01;;;;;;;10.82;5.93;;;20.50;49.00;;;;;;4995052;28;20054;-61
2022/01/27 00:06:26;;;;;;;10.05;5.70;;;20.50;48.90;;;;;;4994262;28;20074;-62
2022/01/27 00:08:58;;;;;;;8.90;5.50;;;20.50;48.80;;;;;;4995505;28;20073;-62
2022/01/27 00:11:23;;;;;;;9.18;5.70;;;20.50;48.80;;;;;;4995123;28;20042;-62
2022/01/27 00:13:56;;;;;;;9.07;6.00;;;20.50;48.80;;;;;;4994198;28;20045;-62
2022/01/27 00:16:26;;;;;;;9.70;5.82;;;20.50;48.80;;;;;;4995223;28;20061;-61
2022/01/27 00:18:52;;;;;;;10.23;6.07;;;20.40;48.70;;;;;;4994094;28;20046;-61
2022/01/27 00:21:19;;;;;;;10.13;6.20;;;20.40;48.60;;;;;;4995115;28;20046;-61
2022/01/27 00:23:45;;;;;;;9.25;5.93;;;20.40;48.60;;;;;;4994828;28;20046;-61
2022/01/27 00:26:12;;;;;;;9.75;5.80;;;20.40;48.60;;;;;;4994398;28;21028;-61
2022/01/27 00:28:38;;;;;;;9.63;5.75;;;20.40;48.60;;;;;;4994593;28;20129;-61
2022/01/27 00:31:04;;;;;;;9.77;6.07;;;20.40;48.60;;;;;;4994772;28;20053;-61
2022/01/27 00:33:29;;;;;;;11.63;6.43;;;20.40;48.60;;;;;;4993454;28;20047;-61
2022/01/27 00:35:55;;;;;;;8.77;5.72;;;20.40;48.60;;;;;;4994818;28;20042;-61
2022/01/27 00:38:20;;;;;;;9.00;6.10;;;20.40;48.50;;;;;;4993579;28;20050;-61
2022/01/27 00:40:46;;;;;;;8.23;5.53;;;20.30;48.50;;;;;;4993558;28;20042;-61
2022/01/27 00:43:11;;;;;;;9.35;5.88;;;20.30;48.50;;;;;;4994469;28;20050;-61
2022/01/27 00:45:37;;;;;;;9.07;5.65;;;20.30;48.50;;;;;;4994251;28;20122;-61
2022/01/27 00:48:04;;;;;;;9.32;5.70;;;20.30;48.40;;;;;;4993769;28;20434;-62
2022/01/27 00:50:34;;;;;;;9.53;5.67;;;20.30;48.50;;;;;;4994354;28;20088;-62
2022/01/27 00:53:03;;;;;;;9.18;5.50;;;20.30;48.50;;;;;;4994941;28;20042;-62
2022/01/27 00:55:33;;;;;;;9.00;5.07;;;20.20;48.30;;;;;;4993324;28;20129;-62
2022/01/27 00:58:13;;;;;;;10.05;5.60;;;20.20;48.30;;;;;;4994345;28;20081;-61
2022/01/27 01:00:49;;;;;;;9.48;5.50;;;20.20;48.20;;;;;;4993633;28;20528;-62
2022/01/27 01:03:25;;;;;;;8.20;5.18;;;20.20;48.30;;;;;;4993579;28;20121;-62
2022/01/27 01:32:41;;;;;;;8.63;5.20;;;20.10;48.10;;;;;;4993656;28;20046;-61
2022/01/27 01:35:08;;;;;;;9.68;5.00;;;20.10;48.10;;;;;;4993781;28;20042;-62
2022/01/27 01:37:38;;;;;;;7.25;4.32;;;20.10;48.10;;;;;;4992828;28;20073;-61
2022/01/27 01:40:06;;;;;;;7.57;4.65;;;20.10;48.10;;;;;;5001478;28;20049;-61
2022/01/27 01:42:32;;;;;;;7.85;4.47;;;20.00;47.90;;;;;;5012983;28;20037;-61
2022/01/27 01:45:06;;;;;;;7.18;4.40;;;20.10;48.00;;;;;;5012462;28;20497;-61
2022/01/27 01:47:31;;;;;;;9.23;5.20;;;20.10;48.00;;;;;;5012801;28;20049;-61
2022/01/27 01:49:56;;;;;;;8.70;4.82;;;20.10;48.00;;;;;;5012861;28;20042;-62
2022/01/27 01:52:22;;;;;;;8.25;4.97;;;20.00;47.90;;;;;;5012360;28;20046;-62
2022/01/27 01:54:48;;;;;;;8.73;4.90;;;20.00;48.00;;;;;;5012434;28;20077;-62
2022/01/27 01:57:13;;;;;;;6.55;4.40;;;20.00;47.90;;;;;;5013077;28;20541;-61
2022/01/27 01:59:39;;;;;;;7.97;4.50;;;20.00;47.90;;;;;;5012151;28;20045;-61
2022/01/27 02:02:04;;;;;;;6.53;4.40;;;20.00;47.90;;;;;;5012610;28;20057;-62
2022/01/27 02:04:30;;;;;;;7.68;4.28;;;20.00;47.90;;;;;;5012061;28;20474;-62
2022/01/27 02:06:59;;;;;;;8.30;4.60;;;20.00;47.90;;;;;;5013093;28;20093;-62
2022/01/27 02:20:05;;;;;;;6.78;4.25;;;20.00;47.80;;;;;;5012346;28;20046;-62
2022/01/27 02:22:30;;;;;;;7.10;4.38;;;20.00;47.80;;;;;;5012832;28;20085;-62
2022/01/27 02:24:56;;;;;;;6.82;4.55;;;20.00;47.70;;;;;;5012646;28;20084;-62
2022/01/27 02:27:21;;;;;;;7.65;5.10;;;20.00;47.70;;;;;;5010932;28;20045;-62
2022/01/27 02:29:47;;;;;;;8.13;4.50;;;20.00;47.60;;;;;;5012412;28;20042;-62
2022/01/27 02:32:13;;;;;;;7.13;4.20;;;20.00;47.60;;;;;;5012360;28;20398;-62
2022/01/27 02:34:39;;;;;;;7.90;5.00;;;20.00;47.60;;;;;;5011655;28;20092;-61
2022/01/27 02:37:05;;;;;;;6.90;4.30;;;20.00;47.70;;;;;;5012384;28;20065;-61
2022/01/27 02:39:30;;;;;;;10.10;4.70;;;20.00;47.70;;;;;;5011202;28;20494;-62
2022/01/27 02:42:06;;;;;;;7.60;3.95;;;20.00;47.60;;;;;;5012642;28;20049;-62
2022/01/27 02:44:45;;;;;;;7.10;4.10;;;20.10;47.70;;;;;;5011967;28;20584;-62
2022/01/27 02:47:11;;;;;;;6.93;3.97;;;20.00;47.70;;;;;;5010889;28;20050;-62
2022/01/27 02:49:36;;;;;;;6.50;4.07;;;20.00;47.70;;;;;;5012183;28;20132;-62
2022/01/27 02:52:02;;;;;;;5.65;3.67;;;20.00;47.60;;;;;;5012588;28;20125;-62
2022/01/27 02:54:28;;;;;;;9.00;4.25;;;20.00;47.60;;;;;;5011109;28;20128;-62
2022/01/27 02:56:53;;;;;;;7.18;4.05;;;20.00;47.50;;;;;;5012356;28;20124;-62
2022/01/27 02:59:20;;;;;;;7.32;4.18;;;20.00;47.60;;;;;;5012123;28;20429;-61
2022/01/27 03:01:47;;;;;;;6.18;3.78;;;20.00;47.50;;;;;;5013426;28;20417;-62
2022/01/27 03:04:12;;;;;;;6.93;3.72;;;20.00;47.50;;;;;;5015036;28;20077;-62
2022/01/27 03:06:38;;;;;;;7.07;3.90;;;20.10;47.50;;;;;;5015556;28;20081;-61
2022/01/27 03:09:04;;;;;;;6.72;3.75;;;20.10;47.50;;;;;;5015348;28;20042;-62
2022/01/27 03:11:37;;;;;;;6.85;4.15;;;20.10;47.50;;;;;;5015507;28;20080;-61
2022/01/27 03:14:03;;;;;;;7.63;4.68;;;20.10;47.50;;;;;;5014578;28;20041;-61
2022/01/27 03:16:29;;;;;;;6.55;3.83;;;20.10;47.40;;;;;;5014804;28;20041;-61
2022/01/27 03:18:54;;;;;;;5.90;3.85;;;20.10;47.40;;;;;;5015877;28;20452;-61
2022/01/27 03:21:20;;;;;;;7.03;3.70;;;20.10;47.30;;;;;;5014742;28;20493;-62
2022/01/27 03:23:46;;;;;;;5.97;3.63;;;20.20;47.40;;;;;;5014814;28;20045;-62
2022/01/27 03:26:11;;;;;;;8.52;4.15;;;20.10;47.30;;;;;;5015711;28;20050;-61
2022/01/27 03:28:37;;;;;;;6.65;3.50;;;20.10;47.40;;;;;;5014810;28;20045;-62
2022/01/27 03:31:02;;;;;;;8.05;4.20;;;20.20;47.40;;;;;;5014889;28;20478;-62
2022/01/27 03:33:28;;;;;;;7.10;3.70;;;20.10;47.30;;;;;;5015425;28;20034;-61
2022/01/27 03:35:53;;;;;;;7.20;3.67;;;20.20;47.40;;;;;;5014627;28;20394;-61
2022/01/27 03:38:19;;;;;;;6.72;3.85;;;20.10;47.40;;;;;;5015385;28;20038;-61
2022/01/27 03:40:44;;;;;;;6.90;3.90;;;20.20;47.30;;;;;;5015244;28;20413;-61
2022/01/27 03:43:11;;;;;;;6.13;3.88;;;20.20;47.30;;;;;;5014288;28;20057;-62
2022/01/27 03:45:37;;;;;;;7.10;3.58;;;20.20;47.30;;;;;;5015159;28;20057;-62
2022/01/27 03:48:03;;;;;;;7.65;3.58;;;20.20;47.30;;;;;;5015388;28;20046;-62
2022/01/27 03:50:28;;;;;;;6.18;3.72;;;20.20;47.30;;;;;;5014267;28;20136;-61
2022/01/27 03:52:54;;;;;;;6.43;3.80;;;20.20;47.30;;;;;;5015102;28;20128;-61
2022/01/27 03:55:19;;;;;;;7.65;3.25;;;20.20;47.30;;;;;;5014922;28;20084;-62
2022/01/27 03:57:45;;;;;;;7.53;3.35;;;20.20;47.30;;;;;;5013928;28;20401;-61
2022/01/27 04:00:11;;;;;;;5.85;3.38;;;20.20;47.30;;;;;;5015160;28;20050;-61
2022/01/27 04:02:40;;;;;;;6.47;3.42;;;20.20;47.30;;;;;;5014364;28;20517;-62
2022/01/27 04:05:07;;;;;;;5.90;3.25;;;20.20;47.30;;;;;;5014025;28;20034;-62
2022/01/27 04:07:32;;;;;;;5.47;3.05;;;20.20;47.20;;;;;;5014517;28;20042;-61
2022/01/27 04:09:58;;;;;;;7.40;3.67;;;20.20;47.20;;;;;;5014620;28;20405;-62
2022/01/27 04:12:23;;;;;;;5.63;3.17;;;20.20;47.30;;;;;;5013799;28;20042;-61
2022/01/27 04:14:49;;;;;;;5.70;3.67;;;20.20;47.20;;;;;;5014467;28;20132;-62
2022/01/27 04:17:14;;;;;;;5.65;3.35;;;20.20;47.20;;;;;;5014834;28;20494;-61
2022/01/27 04:19:40;;;;;;;6.78;3.70;;;20.20;47.20;;;;;;5013366;28;20046;-61
2022/01/27 04:22:05;;;;;;;5.95;3.50;;;20.20;47.20;;;;;;5014858;28;20050;-61
2022/01/27 04:24:31;;;;;;;6.35;3.38;;;20.30;47.20;;;;;;5013369;28;20584;-62
2022/01/27 04:27:05;;;;;;;5.72;3.30;;;20.30;47.20;;;;;;5013778;28;20046;-61
2022/01/27 04:29:34;;;;;;;5.78;3.53;;;20.30;47.30;;;;;;5014137;28;20523;-61
2022/01/27 04:32:01;;;;;;;6.43;3.30;;;20.30;47.20;;;;;;5014300;28;20053;-61
2022/01/27 04:34:27;;;;;;;6.82;3.50;;;20.30;47.30;;;;;;5014120;28;20049;-61
2022/01/27 04:36:55;;;;;;;6.97;3.47;;;20.30;47.30;;;;;;5014026;28;20049;-62
2022/01/27 04:39:34;;;;;;;5.72;3.53;;;20.30;48.00;;;;;;5013361;28;20046;-61
2022/01/27 04:42:10;;;;;;;5.10;2.95;;;20.30;47.30;;;;;;5014207;28;20082;-61
2022/01/27 04:44:48;;;;;;;5.45;3.17;;;20.30;47.30;;;;;;5013985;28;20045;-62
2022/01/27 04:47:21;;;;;;;5.75;3.65;;;20.30;47.30;;;;;;5013465;28;20092;-62
2022/01/27 04:49:47;;;;;;;4.38;2.97;;;20.30;47.20;;;;;;5013860;28;20054;-61
2022/01/27 04:52:13;;;;;;;7.30;3.00;;;20.30;47.30;;;;;;5014205;28;20045;-61
2022/01/27 04:54:52;;;;;;;4.82;3.10;;;20.30;47.20;;;;;;4995359;28;20053;-61
2022/01/27 04:57:18;;;;;;;6.95;2.83;;;20.30;47.20;;;;;;5013811;28;20132;-61
2022/01/27 04:59:44;;;;;;;5.50;3.35;;;20.30;47.20;;;;;;5013500;28;20133;-61
2022/01/27 05:02:19;;;;;;;5.75;3.05;;;20.30;47.20;;;;;;4995848;28;20112;-61
2022/01/27 05:04:49;;;;;;;6.43;3.80;;;20.30;47.20;;;;;;4993532;28;20054;-61
2022/01/27 05:07:14;;;;;;;4.35;2.95;;;20.30;47.20;;;;;;4992998;28;20053;-61
2022/01/27 05:09:50;;;;;;;7.68;3.38;;;20.30;47.20;;;;;;4993763;28;20043;-61
2022/01/27 05:12:25;;;;;;;6.05;3.38;;;20.40;47.20;;;;;;4993893;28;20113;-61
2022/01/27 05:14:51;;;;;;;6.05;3.25;;;20.30;47.10;;;;;;4993005;28;20051;-62
2022/01/27 05:17:18;;;;;;;5.60;3.40;;;20.40;47.20;;;;;;4994138;28;20042;-61
2022/01/27 05:19:47;;;;;;;5.63;3.50;;;20.40;47.20;;;;;;4993552;28;20478;-61
2022/01/27 05:22:13;;;;;;;7.47;4.05;;;20.40;47.20;;;;;;4993248;28;20486;-61
2022/01/27 05:24:38;;;;;;;5.68;3.45;;;20.40;47.20;;;;;;4993029;28;20042;-62
2022/01/27 05:27:04;;;;;;;5.22;3.10;;;20.40;47.20;;;;;;4993813;28;20050;-61
2022/01/27 05:29:30;;;;;;;5.13;3.45;;;20.40;47.20;;;;;;4992584;28;20050;-61
2022/01/27 05:31:55;;;;;;;7.00;3.47;;;20.40;47.20;;;;;;4993836;28;20046;-61
2022/01/27 05:34:20;;;;;;;5.78;3.58;;;20.40;47.10;;;;;;4993570;28;20049;-61
2022/01/27 05:36:46;;;;;;;6.35;3.50;;;20.40;47.10;;;;;;4992543;28;20569;-62
2022/01/27 05:39:12;;;;;;;6.97;3.33;;;20.40;47.10;;;;;;4976051;28;20050;-61
2022/01/27 05:41:38;;;;;;;5.78;3.28;;;20.40;47.10;;;;;;4993363;28;20043;-61
2022/01/27 05:44:03;;;;;;;5.72;3.55;;;20.40;47.10;;;;;;4992859;28;20125;-61
2022/01/27 05:46:29;;;;;;;7.72;3.45;;;20.40;47.10;;;;;;4993402;28;20038;-62
2022/01/27 05:48:54;;;;;;;5.85;3.35;;;20.40;47.10;;;;;;4993765;28;20038;-61
2022/01/27 05:51:20;;;;;;;5.65;3.45;;;20.40;47.10;;;;;;4992804;28;20058;-61
2022/01/27 05:53:46;;;;;;;4.63;3.05;;;20.40;47.10;;;;;;4992838;28;20043;-62
2022/01/27 05:56:11;;;;;;;6.15;3.30;;;20.50;47.10;;;;;;4993313;28;20057;-62
2022/01/27 05:58:37;;;;;;;5.97;2.78;;;20.40;47.10;;;;;;4992299;28;20042;-62
2022/01/27 06:01:03;;;;;;;5.25;3.25;;;20.40;47.10;;;;;;4993296;28;20058;-61
2022/01/27 06:03:28;;;;;;;4.22;2.72;;;20.40;47.10;;;;;;4992132;28;20367;-61
2022/01/27 06:05:54;;;;;;;4.95;2.83;;;20.50;47.10;;;;;;4993490;28;20050;-61
2022/01/27 06:08:19;;;;;;;5.10;2.75;;;20.40;47.00;;;;;;4993404;28;20068;-62
2022/01/27 06:10:45;;;;;;;5.18;3.05;;;20.50;47.20;;;;;;4992544;28;20101;-61
2022/01/27 06:13:10;;;;;;;4.72;2.80;;;20.50;47.20;;;;;;4992865;28;20490;-61
2022/01/27 06:15:36;;;;;;;6.15;3.15;;;20.50;47.20;;;;;;4992804;28;20050;-61
2022/01/27 06:18:01;;;;;;;5.18;3.10;;;20.50;47.20;;;;;;4992601;28;20104;-61
2022/01/27 06:20:29;;;;;;;4.47;2.95;;;20.50;47.20;;;;;;4992908;28;20046;-61
2022/01/27 06:22:58;;;;;;;6.15;3.40;;;20.50;47.20;;;;;;4993450;28;20045;-62
2022/01/27 06:25:24;;;;;;;5.43;3.17;;;20.50;47.20;;;;;;4992421;28;20103;-61
2022/01/27 06:27:50;;;;;;;6.60;3.10;;;20.50;47.20;;;;;;4992792;28;20437;-61
2022/01/27 06:30:15;;;;;;;5.63;2.92;;;20.50;47.20;;;;;;4993223;28;20482;-61
2022/01/27 06:32:41;;;;;;;6.72;3.28;;;20.50;47.20;;;;;;4992115;28;20484;-61
2022/01/27 06:35:07;;;;;;;4.78;2.92;;;20.50;47.20;;;;;;4993392;28;20089;-62
2022/01/27 06:37:32;;;;;;;5.13;3.20;;;20.50;47.20;;;;;;4996390;28;20185;-61
2022/01/27 06:39:58;;;;;;;6.00;3.38;;;20.50;47.20;;;;;;4995921;28;20081;-61
2022/01/27 06:42:23;;;;;;;6.75;3.10;;;20.50;47.20;;;;;;4996835;28;20038;-61
2022/01/27 06:44:49;;;;;;;5.72;3.28;;;20.50;47.20;;;;;;4996763;28;20398;-61
2022/01/27 06:47:14;;;;;;;5.78;3.13;;;20.50;47.20;;;;;;4996167;28;20043;-62
2022/01/27 06:49:40;;;;;;;5.45;2.95;;;20.50;47.20;;;;;;4996431;28;20402;-62
2022/01/27 06:52:06;;;;;;;4.82;2.63;;;20.50;47.30;;;;;;4996680;28;20038;-62
2022/01/27 06:54:32;;;;;;;5.70;3.28;;;20.50;47.30;;;;;;4995289;28;20457;-62
2022/01/27 06:56:58;;;;;;;5.53;2.95;;;20.50;48.00;;;;;;4996640;28;20129;-62
2022/01/27 06:59:23;;;;;;;6.35;3.17;;;20.50;47.30;;;;;;4996186;28;20069;-61
2022/01/27 07:01:49;;;;;;;4.28;2.80;;;20.50;47.30;;;;;;4995353;28;20498;-62
2022/01/27 07:04:14;;;;;;;6.30;2.97;;;20.50;47.40;;;;;;4996590;28;20125;-61
2022/01/27 07:06:40;;;;;;;4.63;2.60;;;20.50;47.30;;;;;;4996013;28;20042;-62
2022/01/27 07:09:05;;;;;;;6.15;3.20;;;20.60;47.40;;;;;;4995727;28;20054;-61
2022/01/27 07:11:31;;;;;;;5.15;2.92;;;20.60;47.40;;;;;;4996061;28;20061;-61
2022/01/27 07:13:56;;;;;;;4.30;2.38;;;20.60;47.40;;;;;;4995487;28;20046;-61
2022/01/27 07:16:22;;;;;;;5.00;2.75;;;20.60;47.40;;;;;;4996110;28;20097;-62
2022/01/27 07:18:47;;;;;;;4.45;2.60;;;20.60;47.40;;;;;;4995858;28;20046;-61
2022/01/27 07:21:13;;;;;;;5.93;2.88;;;20.60;47.50;;;;;;4995591;28;20046;-61
2022/01/27 07:23:38;;;;;;;6.35;2.88;;;20.60;47.40;;;;;;4995674;28;20100;-62
2022/01/27 07:26:04;;;;;;;5.72;3.35;;;20.60;47.40;;;;;;4996136;28;20126;-61
2022/01/27 07:28:30;;;;;;;4.63;2.53;;;20.60;47.40;;;;;;4994609;28;20525;-61
2022/01/27 07:30:55;;;;;;;4.10;2.20;;;20.60;47.40;;;;;;4996000;28;20501;-62
2022/01/27 07:33:21;;;;;;;6.72;2.50;;;20.60;47.40;;;;;;4995989;28;20050;-61
2022/01/27 07:35:46;;;;;;;5.03;2.60;;;20.60;47.50;;;;;;4994618;28;20046;-62
2022/01/27 07:38:12;;;;;;;5.88;2.97;;;20.60;47.50;;;;;;4995772;28;20053;-62
2022/01/27 07:40:37;;;;;;;4.80;2.70;;;20.60;47.50;;;;;;4978114;28;20129;-62
2022/01/27 07:43:03;;;;;;;5.10;2.88;;;20.60;47.50;;;;;;4994848;28;20661;-62
2022/01/27 07:45:28;;;;;;;5.68;3.35;;;20.60;47.50;;;;;;4995333;28;20449;-63
2022/01/27 07:47:54;;;;;;;8.57;2.85;;;20.60;47.60;;;;;;4995065;28;20096;-62
2022/01/27 07:50:21;;;;;;;5.53;3.15;;;20.60;47.60;;;;;;4977299;28;20042;-63
2022/01/27 07:52:47;;;;;;;6.50;3.00;;;20.60;48.30;;;;;;5005500;28;20398;-62
2022/01/27 07:55:12;;;;;;;4.95;2.85;;;20.60;47.70;;;;;;5015062;28;20512;-62
2022/01/27 07:57:38;;;;;;;8.25;2.78;;;20.60;47.70;;;;;;5013650;28;20096;-62
2022/01/27 08:00:06;;;;;;;5.38;2.80;;;20.60;47.70;;;;;;5015007;28;20053;-62
2022/01/27 08:02:32;;;;;;;5.28;2.72;;;20.60;47.70;;;;;;5014490;28;20053;-62
2022/01/27 08:04:57;;;;;;;5.93;2.75;;;20.60;47.80;;;;;;5014370;28;20046;-62
2022/01/27 08:07:23;;;;;;;6.28;2.88;;;20.60;47.80;;;;;;5014830;28;20077;-62
2022/01/27 08:09:49;;;;;;;5.88;2.67;;;20.60;47.90;;;;;;5014241;28;20052;-62
2022/01/27 08:12:14;;;;;;;5.63;2.90;;;20.60;48.00;;;;;;5014100;28;20057;-63
2022/01/27 08:14:40;;;;;;;7.22;2.88;;;20.60;48.00;;;;;;5004387;28;20038;-62
2022/01/27 08:17:06;;;;;;;6.55;2.95;;;20.60;48.20;;;;;;5014004;28;20445;-62
2022/01/27 08:19:31;;;;;;;4.72;2.55;;;20.60;48.40;;;;;;5014139;28;20078;-63
2022/01/27 08:21:57;;;;;;;6.05;2.83;;;20.60;48.50;;;;;;5014431;28;20126;-63
2022/01/27 08:24:22;;;;;;;5.35;3.03;;;20.60;48.50;;;;;;5006640;28;20129;-63
2022/01/27 08:26:50;;;;;;;7.13;2.90;;;20.60;48.70;;;;;;5004379;28;20038;-63
2022/01/27 08:29:22;;;;;;;4.55;2.50;;;20.60;48.80;;;;;;5011874;28;20128;-61
2022/01/27 08:31:57;;;;;;;5.75;2.80;;;20.60;48.90;;;;;;5013372;28;20046;-63
2022/01/27 08:34:30;;;;;;;4.68;2.67;;;20.70;49.10;;;;;;4989547;28;20133;-63
2022/01/27 08:36:56;;;;;;;5.35;2.85;;;20.70;49.20;;;;;;5010876;28;20053;-63
2022/01/27 08:39:22;;;;;;;5.95;2.75;;;20.70;49.20;;;;;;5013433;28;20042;-63
2022/01/27 08:41:48;;;;;;;6.43;2.85;;;20.70;49.30;;;;;;5013609;28;20120;-65
2022/01/27 08:44:14;;;;;;;4.68;2.63;;;20.70;49.30;;;;;;5013806;28;20042;-63
2022/01/27 08:46:39;;;;;;;4.35;2.33;;;20.70;49.40;;;;;;5005735;28;20046;-63
2022/01/27 08:49:06;;;;;;;4.97;2.63;;;20.70;49.40;;;;;;5000656;28;20191;-63
2022/01/27 08:51:32;;;;;;;5.32;2.50;;;20.70;49.40;;;;;;5013354;28;20045;-61
2022/01/27 08:53:58;;;;;;;5.57;2.70;;;20.70;49.40;;;;;;4994433;28;20533;-61
2022/01/27 08:56:23;;;;;;;4.68;2.65;;;20.70;49.40;;;;;;4994285;28;20082;-61
2022/01/27 08:58:49;;;;;;;5.53;2.42;;;20.70;49.40;;;;;;4996138;28;20078;-61
2022/01/27 09:01:15;;;;;;;5.18;2.50;;;20.70;49.30;;;;;;5002485;28;20058;-61
2022/01/27 09:03:41;;;;;;;4.53;2.17;;;20.70;49.30;;;;;;5013612;28;20117;-61
2022/01/27 09:06:06;;;;;;;5.30;2.65;;;20.70;49.30;;;;;;5013295;28;20038;-62
2022/01/27 09:08:32;;;;;;;5.68;2.53;;;20.70;49.30;;;;;;5000815;28;20042;-59
2022/01/27 09:10:57;;;;;;;6.07;2.35;;;20.70;49.30;;;;;;4994078;28;20043;-62
2022/01/27 09:13:23;;;;;;;4.60;2.20;;;20.70;49.40;;;;;;4993115;28;20046;-63
2022/01/27 09:15:49;;;;;;;4.30;2.20;;;20.70;49.40;;;;;;4993574;28;20050;-63
2022/01/27 09:18:16;;;;;;;6.93;2.50;;;20.70;49.50;;;;;;4993735;28;20056;-64
2022/01/27 09:20:42;;;;;;;6.55;2.13;;;20.70;49.40;;;;;;4993033;28;20282;-63
2022/01/27 09:23:13;;;;;;;4.70;2.38;;;20.70;49.40;;;;;;4993685;28;20053;-64
2022/01/27 09:25:44;;;;;;;6.18;2.20;;;20.80;49.50;;;;;;4993476;28;20050;-64
2022/01/27 09:28:13;;;;;;;4.47;2.50;;;20.80;49.50;;;;;;4992860;28;20500;-60
2022/01/27 09:30:39;;;;;;;5.28;2.40;;;20.80;49.50;;;;;;4992693;28;20104;-62
2022/01/27 09:33:05;;;;;;;5.70;2.08;;;20.80;49.50;;;;;;4992989;28;20054;-61
2022/01/27 09:35:31;;;;;;;4.05;2.22;;;20.80;49.50;;;;;;4974836;28;20053;-62
2022/01/27 09:37:57;;;;;;;5.53;2.13;;;20.80;49.50;;;;;;4993323;28;20090;-60
2022/01/27 09:40:24;;;;;;;3.75;2.10;;;20.80;49.50;;;;;;4993141;28;20089;-60
2022/01/27 09:42:52;;;;;;;4.10;2.10;;;20.80;49.60;;;;;;4992166;28;20042;-61
2022/01/27 09:45:18;;;;;;;4.75;2.00;;;20.80;50.30;;;;;;4992791;28;20109;-60
2022/01/27 09:47:53;;;;;;;4.60;2.10;;;20.80;49.60;;;;;;4992803;28;20297;-60
2022/01/27 09:50:26;;;;;;;5.00;1.90;;;20.80;49.60;;;;;;4995505;28;20088;-61
2022/01/27 09:52:51;;;;;;;4.97;2.20;;;20.80;49.60;;;;;;5010926;28;20041;-61
2022/01/27 09:55:17;;;;;;;6.05;2.17;;;20.80;49.60;;;;;;4992532;28;20050;-62
2022/01/27 09:57:42;;;;;;;19.33;6.82;;;20.80;49.70;;;;;;4991691;28;20058;-65
2022/01/27 10:00:08;;;;;;;30.35;10.27;;;20.80;50.00;;;;;;4991797;28;20137;-65
2022/01/27 10:02:34;;;;;;;19.05;6.60;;;20.90;50.80;;;;;;4991808;28;20054;-66
2022/01/27 10:05:01;;;;;;;19.95;7.35;;;20.90;51.20;;;;;;4992804;28;20046;-66
2022/01/27 10:07:33;;;;;;;25.77;8.00;;;20.90;51.30;;;;;;4992531;28;20423;-64
2022/01/27 10:10:10;;;;;;;24.67;10.05;;;21.00;51.90;;;;;;4960472;28;20053;-64
2022/01/27 10:12:48;;;;;;;16.30;7.30;;;21.00;52.40;;;;;;5015682;28;20477;-65
2022/01/27 10:15:18;;;;;;;23.75;9.25;;;21.00;52.70;;;;;;4996971;28;20474;-62
2022/01/27 10:18:14;;;;;;;31.48;13.82;;;21.00;52.90;;;;;;4995408;28;20477;-64
2022/01/27 10:20:44;;;;;;;20.08;8.52;;;21.10;53.70;;;;;;4996338;28;20043;-63
2022/01/27 10:23:38;;;;;;;41.78;15.77;;;21.10;53.30;;;;;;4979057;28;20046;-64
2022/01/27 10:26:13;;;;;;;35.35;13.13;;;21.10;54.00;;;;;;4992978;28;20174;-63
2022/01/27 10:28:50;;;;;;;27.95;10.98;;;21.10;53.80;;;;;;4996237;28;20100;-66
2022/01/27 10:31:19;;;;;;;29.42;11.10;;;21.20;54.10;;;;;;4995804;28;20073;-65
2022/01/27 10:33:46;;;;;;;23.63;9.15;;;21.20;54.40;;;;;;4996307;28;20046;-68
2022/01/27 10:36:24;;;;;;;29.45;10.18;;;21.20;54.50;;;;;;4996427;28;20046;-66
2022/01/27 10:38:52;;;;;;;25.80;9.40;;;21.30;55.30;;;;;;4995399;28;20472;-65
2022/01/27 10:41:17;;;;;;;24.23;9.80;;;21.30;55.40;;;;;;4996234;28;20441;-66
2022/01/27 10:43:44;;;;;;;21.48;9.15;;;21.30;55.40;;;;;;4995839;28;20047;-65
2022/01/27 10:49:06;;;;;;;20.50;7.60;;;21.30;55.30;;;;;;4998096;28;20046;-65
2022/01/27 10:51:42;;;;;;;20.05;7.45;;;21.30;54.90;;;;;;5006291;28;20039;-65
2022/01/27 10:54:20;;;;;;;17.83;6.82;;;21.30;54.60;;;;;;5006710;28;20038;-64
2022/01/27 10:56:45;;;;;;;19.87;7.77;;;21.30;54.50;;;;;;5009614;28;20077;-64
2022/01/27 10:59:13;;;;;;;19.50;6.82;;;21.30;54.30;;;;;;5014969;28;20331;-66
2022/01/27 11:01:40;;;;;;;34.70;10.23;;;21.30;54.20;;;;;;4997742;28;20050;-67
2022/01/27 11:04:10;;;;;;;25.50;8.68;;;21.40;54.90;;;;;;5015779;28;20049;-67
2022/01/27 11:06:37;;;;;;;28.83;9.93;;;21.30;55.10;;;;;;5014958;28;20042;-71
2022/01/27 11:09:10;;;;;;;32.17;9.00;;;21.40;55.50;;;;;;4997895;28;20056;-71
2022/01/27 11:11:39;;;;;;;31.52;9.98;;;21.40;55.90;;;;;;5012084;28;20481;-76
2022/01/27 11:14:04;;;;;;;26.20;9.95;;;21.40;55.80;;;;;;4994992;28;20050;-63
2022/01/27 11:16:35;;;;;;;26.02;8.82;;;21.40;55.70;;;;;;4994618;28;20092;-66
2022/01/27 11:21:47;;;;;;;22.00;6.72;;;21.40;55.10;;;;;;4994194;28;20050;-67
2022/01/27 11:24:17;;;;;;;17.13;6.88;;;21.30;54.90;;;;;;4995731;28;20105;-67
2022/01/27 11:26:44;;;;;;;22.42;8.10;;;21.30;54.70;;;;;;4978322;28;20050;-67
2022/01/27 11:29:10;;;;;;;16.38;6.15;;;21.30;54.70;;;;;;4961583;28;20069;-66
2022/01/27 11:32:14;;;;;;;19.60;6.22;;;21.30;54.70;;;;;;5004049;28;20489;-60
2022/01/27 11:34:50;;;;;;;20.17;6.53;;;21.30;54.60;;;;;;4999496;28;20068;-60
2022/01/27 11:37:18;;;;;;;15.10;5.90;;;21.30;54.30;;;;;;5015561;28;20104;-59
2022/01/27 11:39:55;;;;;;;16.48;5.68;;;21.20;54.20;;;;;;5015214;28;20080;-60
2022/01/27 11:42:35;;;;;;;15.98;5.95;;;21.20;54.20;;;;;;5014610;28;20050;-60
2022/01/27 11:45:23;;;;;;;14.30;5.55;;;21.20;54.10;;;;;;5015455;28;20049;-59
2022/01/27 11:47:49;;;;;;;13.73;5.35;;;21.20;54.10;;;;;;5014902;28;20046;-60
2022/01/27 11:50:33;;;;;;;14.30;5.75;;;21.10;54.10;;;;;;5014289;28;20061;-60
2022/01/27 11:53:00;;;;;;;16.67;4.78;;;21.10;54.10;;;;;;5015164;28;20049;-60
2022/01/27 11:55:26;;;;;;;15.82;4.97;;;21.10;54.10;;;;;;5002869;28;20042;-59
2022/01/27 11:57:58;;;;;;;12.00;5.03;;;21.10;54.10;;;;;;4995484;28;20034;-59
2022/01/27 12:00:26;;;;;;;12.65;4.40;;;21.10;54.10;;;;;;4995627;28;20134;-59
2022/01/27 12:03:00;;;;;;;14.70;4.88;;;21.10;54.20;;;;;;4994258;28;20157;-59
2022/01/27 12:05:30;;;;;;;13.05;5.05;;;21.00;54.20;;;;;;4995223;28;20043;-59
2022/01/27 12:08:18;;;;;;;10.80;4.18;;;21.00;54.20;;;;;;4995538;28;20062;-59
2022/01/27 12:11:01;;;;;;;11.45;4.32;;;21.10;54.30;;;;;;4994314;28;20054;-59
2022/01/27 12:16:22;;;;;;;13.38;4.22;;;21.00;54.40;;;;;;5013772;28;20136;-59
2022/01/27 12:19:08;;;;;;;12.60;4.10;;;21.10;54.40;;;;;;5014595;28;20038;-59
2022/01/27 12:21:37;;;;;;;11.98;4.53;;;21.00;54.10;;;;;;5013167;28;20050;-59
2022/01/27 12:24:14;;;;;;;8.88;4.20;;;21.00;54.30;;;;;;5013516;28;20411;-59
2022/01/27 12:27:06;;;;;;;9.43;3.70;;;21.00;54.30;;;;;;5013850;28;20045;-59
2022/01/27 12:29:35;;;;;;;11.75;4.38;;;21.00;54.30;;;;;;5008670;28;20309;-60
2022/01/27 12:32:08;;;;;;;11.20;4.50;;;21.00;54.20;;;;;;4993510;28;20054;-60
2022/01/27 12:34:34;;;;;;;11.85;3.92;;;21.10;54.40;;;;;;4994276;28;20400;-59
2022/01/27 12:37:03;;;;;;;9.77;3.65;;;21.10;54.40;;;;;;4977242;28;20046;-59
2022/01/27 12:39:34;;;;;;;10.90;3.70;;;21.10;54.20;;;;;;4993741;28;20058;-59
2022/01/27 12:42:01;;;;;;;8.55;3.30;;;21.10;54.00;;;;;;4997023;28;20048;-60
2022/01/27 12:44:28;;;;;;;8.45;3.50;;;21.10;54.50;;;;;;4998442;28;20046;-59
2022/01/27 12:47:20;;;;;;;8.57;3.17;;;21.10;53.70;;;;;;4994492;28;20097;-59
2022/01/27 12:49:50;;;;;;;8.98;3.50;;;21.10;53.50;;;;;;4990322;28;20457;-59
2022/01/27 12:52:18;;;;;;;9.10;3.25;;;21.10;53.50;;;;;;4992992;28;20128;-60
2022/01/27 12:54:44;;;;;;;10.40;2.90;;;21.10;53.40;;;;;;4993546;28;20494;-60
2022/01/27 12:57:10;;;;;;;8.77;3.08;;;21.10;53.30;;;;;;4994307;28;20089;-60
2022/01/27 12:59:39;;;;;;;10.02;2.95;;;21.10;53.20;;;;;;5008066;28;20096;-60
2022/01/27 13:02:05;;;;;;;;;;;21.10;53.20;;;;;;4976759;28;20108;-60
2022/01/27 13:04:31;;;;;;;6.25;2.55;;;21.10;53.00;;;;;;4994100;28;19922;-60
2022/01/27 13:06:57;;;;;;;8.75;2.85;;;21.00;53.10;;;;;;4993522;28;20440;-59
2022/01/27 13:09:23;;;;;;;10.02;2.75;;;21.10;53.00;;;;;;4997743;28;20083;-60
2022/01/27 13:11:51;;;;;;;8.35;2.85;;;21.10;53.00;;;;;;4992996;28;20050;-60
2022/01/27 13:14:16;;;;;;;;;;;21.10;52.90;;;;;;4992860;28;20490;-60
2022/01/27 13:16:45;;;;;;;9.55;2.67;;;21.00;52.60;;;;;;4993799;28;19929;-60
2022/01/27 13:19:22;;;;;;;9.73;3.13;;;21.00;52.80;;;;;;4994102;28;20045;-59
2022/01/27 13:21:59;;;;;;;7.07;2.08;;;21.10;52.70;;;;;;4992918;28;20049;-59
2022/01/27 13:24:26;;;;;;;8.27;2.47;;;21.10;52.60;;;;;;4993600;28;20042;-60
2022/01/27 13:27:03;;;;;;;8.35;2.78;;;21.10;52.50;;;;;;4993335;28;20112;-59
2022/01/27 13:29:29;;;;;;;7.07;2.70;;;21.10;52.40;;;;;;4993503;28;20093;-59
2022/01/27 13:31:56;;;;;;;8.18;2.10;;;21.10;52.40;;;;;;4976681;28;20046;-60
2022/01/27 13:34:21;;;;;;;5.57;2.28;;;21.00;52.30;;;;;;4975927;28;20104;-59
2022/01/27 13:36:57;;;;;;;6.78;2.03;;;21.10;52.30;;;;;;4976077;28;20054;-60